createdAt,value
2024-02-15T00:02:07.996Z,9.87
2024-02-15T00:04:38.581Z,9.23
2024-02-15T00:07:06.991Z,10.20
2024-02-15T00:09:35.157Z,9.60
2024-02-15T00:12:03.378Z,9.50
2024-02-15T00:14:32.784Z,11.90
2024-02-15T00:17:00.961Z,9.30
2024-02-15T00:19:31.363Z,9.67
2024-02-15T00:22:01.074Z,11.67
2024-02-15T00:24:29.220Z,10.07
2024-02-15T00:26:57.379Z,9.97
2024-02-15T00:29:25.942Z,10.53
2024-02-15T00:31:54.045Z,9.33
2024-02-15T00:34:23.116Z,9.70
2024-02-15T00:36:51.585Z,9.43
2024-02-15T00:39:21.135Z,10.00
2024-02-15T00:41:49.937Z,9.23
2024-02-15T00:44:18.956Z,9.10
2024-02-15T00:46:49.012Z,8.63
2024-02-15T00:49:17.906Z,8.97
2024-02-15T00:51:46.192Z,9.17
2024-02-15T00:54:14.744Z,9.87
2024-02-15T00:56:44.458Z,8.30
2024-02-15T00:59:12.778Z,8.47
2024-02-15T01:01:42.210Z,8.77
2024-02-15T01:04:10.541Z,9.33
2024-02-15T01:06:38.724Z,8.93
2024-02-15T01:09:07.100Z,9.93
2024-02-15T01:11:36.128Z,8.53
2024-02-15T01:14:06.003Z,9.10
2024-02-15T01:16:34.561Z,8.63
2024-02-15T01:19:02.834Z,9.90
2024-02-15T01:21:31.028Z,9.73
2024-02-15T01:24:01.586Z,9.30
2024-02-15T01:26:29.800Z,10.30
2024-02-15T01:28:58.076Z,9.20
2024-02-15T01:31:27.573Z,8.87
2024-02-15T01:33:55.928Z,9.50
2024-02-15T01:36:24.143Z,9.37
2024-02-15T01:38:52.336Z,9.53
2024-02-15T01:41:20.506Z,9.40
2024-02-15T01:43:49.108Z,9.57
2024-02-15T01:46:17.738Z,8.70
2024-02-15T01:48:49.321Z,8.43
2024-02-15T01:51:19.321Z,8.67
2024-02-15T01:53:48.345Z,9.40
2024-02-15T01:56:19.105Z,9.33
2024-02-15T01:58:48.285Z,8.83
2024-02-15T02:01:17.581Z,9.20
2024-02-15T02:03:46.457Z,8.80
2024-02-15T02:06:16.310Z,9.53
2024-02-15T02:08:44.539Z,8.70
2024-02-15T02:11:12.853Z,9.17
2024-02-15T02:13:40.973Z,9.67
2024-02-15T02:16:26.863Z,9.00
2024-02-15T02:18:55.051Z,9.13
2024-02-15T02:21:25.301Z,9.43
2024-02-15T02:23:57.957Z,9.47
2024-02-15T02:26:28.141Z,9.30
2024-02-15T02:28:56.252Z,9.13
2024-02-15T02:31:24.441Z,9.83
2024-02-15T02:33:55.685Z,9.70
2024-02-15T02:36:27.847Z,8.90
2024-02-15T02:38:56.523Z,9.37
2024-02-15T02:41:24.882Z,10.13
2024-02-15T02:43:54.450Z,9.10
2024-02-15T02:46:22.645Z,9.20
2024-02-15T02:48:50.943Z,9.90
2024-02-15T02:51:19.344Z,9.60
2024-02-15T02:53:48.222Z,9.43
2024-02-15T02:56:16.568Z,9.50
2024-02-15T02:58:44.740Z,9.47
2024-02-15T03:01:14.572Z,10.67
2024-02-15T03:03:44.098Z,9.67
2024-02-15T03:06:12.370Z,10.23
2024-02-15T03:08:40.569Z,9.77
2024-02-15T03:11:08.724Z,11.20
2024-02-15T03:13:36.833Z,10.03
2024-02-15T03:16:06.775Z,10.07
2024-02-15T03:18:36.632Z,10.57
2024-02-15T03:21:05.396Z,10.93
2024-02-15T03:23:34.679Z,10.40
2024-02-15T03:26:05.007Z,10.47
2024-02-15T03:28:33.405Z,10.50
2024-02-15T03:31:02.572Z,10.10
2024-02-15T03:33:35.165Z,10.90
2024-02-15T03:36:06.321Z,10.40
2024-02-15T03:38:34.547Z,11.10
2024-02-15T03:41:03.513Z,11.00
2024-02-15T03:43:31.646Z,11.10
2024-02-15T03:45:59.943Z,11.07
2024-02-15T03:48:28.182Z,10.33
2024-02-15T03:50:56.395Z,11.07
2024-02-15T03:53:27.372Z,10.50
2024-02-15T03:55:55.496Z,11.60
2024-02-15T03:58:23.656Z,11.07
2024-02-15T04:00:51.984Z,11.23
2024-02-15T04:03:20.469Z,10.70
2024-02-15T04:05:50.065Z,11.97
2024-02-15T04:08:20.069Z,11.80
2024-02-15T04:10:52.657Z,11.60
2024-02-15T04:13:21.886Z,11.20
2024-02-15T04:15:51.858Z,11.70
2024-02-15T04:18:20.088Z,10.93
2024-02-15T04:20:49.962Z,11.30
2024-02-15T04:23:18.155Z,11.80
2024-02-15T04:25:52.190Z,10.87
2024-02-15T04:28:21.915Z,11.77
2024-02-15T04:30:50.086Z,11.40
2024-02-15T04:33:18.504Z,11.07
2024-02-15T04:35:46.767Z,11.63
2024-02-15T04:38:14.919Z,10.97
2024-02-15T04:40:43.081Z,10.97
2024-02-15T04:43:11.190Z,11.93
2024-02-15T04:45:40.753Z,11.53
2024-02-15T04:48:09.900Z,12.37
2024-02-15T04:50:38.583Z,11.70
2024-02-15T04:53:08.303Z,11.70
2024-02-15T04:55:37.199Z,11.60
2024-02-15T04:58:06.829Z,10.83
2024-02-15T05:00:35.052Z,10.93
2024-02-15T05:03:05.528Z,11.53
2024-02-15T05:05:36.058Z,11.60
2024-02-15T05:08:05.157Z,11.77
2024-02-15T05:10:33.401Z,11.70
2024-02-15T05:13:02.661Z,11.40
2024-02-15T05:15:30.936Z,11.67
2024-02-15T05:17:59.132Z,11.40
2024-02-15T05:20:28.724Z,12.23
2024-02-15T05:22:56.890Z,14.43
2024-02-15T05:25:27.779Z,11.80
2024-02-15T05:27:57.217Z,11.90
2024-02-15T05:30:26.851Z,12.60
2024-02-15T05:32:56.024Z,11.50
2024-02-15T05:35:25.917Z,11.27
2024-02-15T05:37:55.736Z,10.93
2024-02-15T05:40:23.936Z,11.40
2024-02-15T05:42:59.840Z,11.37
2024-02-15T05:45:34.377Z,11.33
2024-02-15T05:48:10.266Z,11.97
2024-02-15T05:50:39.167Z,10.77
2024-02-15T05:53:09.437Z,11.30
2024-02-15T05:55:39.230Z,11.43
2024-02-15T05:58:09.436Z,11.23
2024-02-15T06:00:36.751Z,11.43
2024-02-15T06:03:05.463Z,11.60
2024-02-15T06:05:33.836Z,10.77
2024-02-15T06:08:02.117Z,11.10
2024-02-15T06:10:31.731Z,11.73
2024-02-15T06:13:00.703Z,11.40
2024-02-15T06:15:29.127Z,11.37
2024-02-15T06:17:58.526Z,11.80
2024-02-15T06:20:29.925Z,11.27
2024-02-15T06:22:58.156Z,11.53
2024-02-15T06:25:26.270Z,11.60
2024-02-15T06:28:00.791Z,11.70
2024-02-15T06:30:46.359Z,11.07
2024-02-15T06:33:32.140Z,11.20
2024-02-15T06:36:17.705Z,11.73
2024-02-15T06:39:03.522Z,10.93
2024-02-15T06:41:31.634Z,13.53
2024-02-15T06:44:01.168Z,11.73
2024-02-15T06:46:29.396Z,11.47
2024-02-15T06:48:59.625Z,11.77
2024-02-15T06:51:28.148Z,11.77
2024-02-15T06:53:57.517Z,12.17
2024-02-15T06:56:25.827Z,11.57
2024-02-15T06:58:54.369Z,11.63
2024-02-15T07:01:26.514Z,12.27
2024-02-15T07:03:57.649Z,12.37
2024-02-15T07:06:28.748Z,12.97
2024-02-15T07:08:59.381Z,11.80
2024-02-15T07:11:27.576Z,13.30
2024-02-15T07:13:56.720Z,12.30
2024-02-15T07:16:26.336Z,11.70
2024-02-15T07:18:54.799Z,11.87
2024-02-15T07:21:27.226Z,13.20
2024-02-15T07:23:56.670Z,11.83
2024-02-15T07:26:26.830Z,11.63
2024-02-15T07:28:57.089Z,11.90
2024-02-15T07:31:30.604Z,11.53
2024-02-15T07:33:59.152Z,11.07
2024-02-15T07:36:28.730Z,11.93
2024-02-15T07:38:59.108Z,11.73
2024-02-15T07:41:27.265Z,11.77
2024-02-15T07:43:56.485Z,11.63
2024-02-15T07:46:26.598Z,11.23
2024-02-15T07:48:55.103Z,11.73
2024-02-15T07:51:24.976Z,11.33
2024-02-15T07:53:54.737Z,11.67
2024-02-15T07:56:23.484Z,11.30
2024-02-15T07:58:54.187Z,12.27
2024-02-15T08:01:24.302Z,12.07
2024-02-15T08:03:56.342Z,11.57
2024-02-15T08:06:29.127Z,11.43
2024-02-15T08:08:57.743Z,11.70
2024-02-15T08:11:27.973Z,11.83
2024-02-15T08:13:59.980Z,12.30
2024-02-15T08:16:29.588Z,11.97
2024-02-15T08:18:59.861Z,12.47
2024-02-15T08:21:30.545Z,12.00
2024-02-15T08:23:59.844Z,11.23
2024-02-15T08:26:28.372Z,11.10
2024-02-15T08:28:57.110Z,12.10
2024-02-15T08:31:26.391Z,10.90
2024-02-15T08:33:54.673Z,11.07
2024-02-15T08:36:24.391Z,11.47
2024-02-15T08:38:52.913Z,11.03
2024-02-15T08:41:22.102Z,10.90
2024-02-15T08:43:50.777Z,10.97
2024-02-15T08:46:18.908Z,11.00
2024-02-15T08:48:47.961Z,9.63
2024-02-15T08:51:17.236Z,9.70
2024-02-15T08:53:47.320Z,10.00
2024-02-15T08:56:15.744Z,9.60
2024-02-15T08:58:44.018Z,10.20
2024-02-15T09:01:14.525Z,10.73
2024-02-15T09:03:43.158Z,10.30
2024-02-15T09:06:12.032Z,10.23
2024-02-15T09:08:40.360Z,10.70
2024-02-15T09:11:13.410Z,10.50
2024-02-15T09:13:41.721Z,10.20
2024-02-15T09:16:09.848Z,10.40
2024-02-15T09:18:39.125Z,10.40
2024-02-15T09:21:07.576Z,10.57
2024-02-15T09:23:35.807Z,10.20
2024-02-15T09:26:04.039Z,11.20
2024-02-15T09:28:33.805Z,10.23
2024-02-15T09:31:02.939Z,10.18
2024-02-15T09:33:31.196Z,9.68
2024-02-15T09:35:59.517Z,10.18
2024-02-15T09:38:27.692Z,10.18
2024-02-15T09:40:56.729Z,9.63
2024-02-15T09:43:27.264Z,9.88
2024-02-15T09:45:57.363Z,9.63
2024-02-15T09:48:27.855Z,9.02
2024-02-15T09:50:57.381Z,9.13
2024-02-15T09:53:27.111Z,9.48
2024-02-15T09:55:56.364Z,9.35
2024-02-15T09:58:25.313Z,10.43
2024-02-15T10:00:53.444Z,10.00
2024-02-15T10:03:25.322Z,9.25
2024-02-15T10:05:53.687Z,9.10
2024-02-15T10:08:24.297Z,10.18
2024-02-15T10:11:08.166Z,9.48
2024-02-15T10:13:36.574Z,10.18
2024-02-15T10:16:17.710Z,10.93
2024-02-15T10:18:48.515Z,9.18
2024-02-15T10:21:30.541Z,9.90
2024-02-15T10:24:09.194Z,9.38
2024-02-15T10:26:38.468Z,9.52
2024-02-15T10:29:12.007Z,9.93
2024-02-15T10:31:42.764Z,9.68
2024-02-15T10:34:16.767Z,9.90
2024-02-15T10:36:45.143Z,10.43
2024-02-15T10:39:18.763Z,9.25
2024-02-15T10:41:48.456Z,9.45
2024-02-15T10:44:19.655Z,9.38
2024-02-15T10:46:54.898Z,9.75
2024-02-15T10:49:26.595Z,8.77
2024-02-15T10:52:05.352Z,8.88
2024-02-15T10:54:45.335Z,9.00
2024-02-15T10:57:15.632Z,8.90
2024-02-15T10:59:54.949Z,8.15
2024-02-15T11:02:30.474Z,8.10
2024-02-15T11:05:05.560Z,9.02
2024-02-15T11:07:34.707Z,7.63
2024-02-15T11:10:05.970Z,7.68
2024-02-15T11:12:34.396Z,7.40
2024-02-15T11:15:02.945Z,7.20
2024-02-15T11:17:52.316Z,8.15
2024-02-15T11:20:54.268Z,7.82
2024-02-15T11:26:02.123Z,8.40
2024-02-15T11:28:51.754Z,8.00
2024-02-15T11:31:55.547Z,8.05
2024-02-15T11:34:49.618Z,7.15
2024-02-15T11:37:54.245Z,7.88
2024-02-15T11:40:24.569Z,7.50
2024-02-15T11:42:54.329Z,7.05
2024-02-15T11:45:23.001Z,17.05
2024-02-15T11:47:53.913Z,7.72
2024-02-15T11:50:23.423Z,7.97
2024-02-15T11:52:54.124Z,7.50
2024-02-15T11:55:27.168Z,7.95
2024-02-15T11:58:04.275Z,8.50
2024-02-15T12:00:50.643Z,8.30
2024-02-15T12:03:37.452Z,8.35
2024-02-15T12:06:24.109Z,8.13
2024-02-15T12:09:12.312Z,7.88
2024-02-15T12:11:58.621Z,8.32
2024-02-15T12:15:21.705Z,8.80
2024-02-15T12:18:07.732Z,8.75
2024-02-15T12:20:36.460Z,8.85
2024-02-15T12:23:08.480Z,8.70
2024-02-15T12:25:40.031Z,7.40
2024-02-15T12:28:09.068Z,7.40
2024-02-15T12:30:39.655Z,7.30
2024-02-15T12:33:21.699Z,7.80
2024-02-15T12:35:51.475Z,7.57
2024-02-15T12:38:20.006Z,7.82
2024-02-15T12:40:50.011Z,7.88
2024-02-15T12:43:18.145Z,7.35
2024-02-15T12:45:46.297Z,8.02
2024-02-15T12:48:16.838Z,7.60
2024-02-15T12:50:45.212Z,7.32
2024-02-15T12:53:13.439Z,7.53
2024-02-15T12:55:42.411Z,7.43
2024-02-15T12:58:16.995Z,7.43
2024-02-15T13:00:45.931Z,6.57
2024-02-15T13:03:16.652Z,6.87
2024-02-15T13:05:45.888Z,7.47
2024-02-15T13:08:15.946Z,7.40
2024-02-15T13:10:46.733Z,7.37
2024-02-15T13:13:17.458Z,7.60
2024-02-15T13:15:47.097Z,7.53
2024-02-15T13:18:16.441Z,7.40
2024-02-15T13:20:44.992Z,6.33
2024-02-15T13:23:20.949Z,6.90
2024-02-15T13:25:50.050Z,6.20
2024-02-15T13:28:19.962Z,6.53
2024-02-15T13:30:50.596Z,7.00
2024-02-15T13:33:19.232Z,6.40
2024-02-15T13:35:47.565Z,7.00
2024-02-15T13:38:23.760Z,6.30
2024-02-15T13:40:52.773Z,6.63
2024-02-15T13:43:22.324Z,7.00
2024-02-15T13:45:50.489Z,7.77
2024-02-15T13:48:18.774Z,7.97
2024-02-15T13:50:47.416Z,6.93
2024-02-15T13:53:15.974Z,6.40
2024-02-15T13:55:44.146Z,6.33
2024-02-15T13:58:14.096Z,7.27
2024-02-15T14:01:02.088Z,7.40
2024-02-15T14:03:34.789Z,6.03
2024-02-15T14:06:03.204Z,6.33
2024-02-15T14:08:31.586Z,6.77
2024-02-15T14:10:59.804Z,6.33
2024-02-15T14:13:27.961Z,6.63
2024-02-15T14:15:58.901Z,6.73
2024-02-15T14:18:27.107Z,6.17
2024-02-15T14:20:55.422Z,6.43
2024-02-15T14:23:23.565Z,6.50
2024-02-15T14:25:54.340Z,7.53
2024-02-15T14:28:22.523Z,6.27
2024-02-15T14:31:13.866Z,6.87
2024-02-15T14:33:43.519Z,6.57
2024-02-15T14:36:12.577Z,7.37
2024-02-15T14:38:40.845Z,7.33
2024-02-15T14:41:11.808Z,7.50
2024-02-15T14:43:41.622Z,6.87
2024-02-15T14:46:12.061Z,6.80
2024-02-15T14:48:42.122Z,8.57
2024-02-15T14:51:17.619Z,8.13
2024-02-15T14:53:46.708Z,7.27
2024-02-15T14:56:14.918Z,7.73
2024-02-15T14:58:44.335Z,7.17
2024-02-15T15:01:14.362Z,7.50
2024-02-15T15:03:44.671Z,6.50
2024-02-15T15:06:32.150Z,6.93
2024-02-15T15:09:17.844Z,6.73
2024-02-15T15:12:04.013Z,7.63
2024-02-15T15:14:32.538Z,6.53
2024-02-15T15:17:03.445Z,7.03
2024-02-15T15:19:32.515Z,6.70
2024-02-15T15:22:02.545Z,7.07
2024-02-15T15:24:31.887Z,7.63
2024-02-15T15:27:01.160Z,6.97
2024-02-15T15:29:29.497Z,6.70
2024-02-15T15:31:58.512Z,8.53
2024-02-15T15:34:29.627Z,9.10
2024-02-15T15:36:58.427Z,7.87
2024-02-15T15:39:30.172Z,7.00
2024-02-15T15:41:58.435Z,6.40
2024-02-15T15:44:29.613Z,6.63
2024-02-15T15:46:58.202Z,6.20
2024-02-15T15:49:26.557Z,6.30
2024-02-15T15:51:57.552Z,9.30
2024-02-15T15:54:25.938Z,8.40
2024-02-15T15:56:57.548Z,6.13
2024-02-15T15:59:25.874Z,6.30
2024-02-15T16:01:55.284Z,7.77
2024-02-15T16:04:24.408Z,7.03
2024-02-15T16:06:54.966Z,7.70
2024-02-15T16:09:24.000Z,8.03
2024-02-15T16:11:54.568Z,10.00
2024-02-15T16:14:24.696Z,9.50
2024-02-15T16:16:52.783Z,7.73
2024-02-15T16:19:21.135Z,7.30
2024-02-15T16:21:49.233Z,7.47
2024-02-15T16:24:19.012Z,6.53
2024-02-15T16:26:47.210Z,7.20
2024-02-15T16:29:15.780Z,7.40
2024-02-15T16:31:47.904Z,7.10
2024-02-15T16:34:16.831Z,7.90
2024-02-15T16:36:46.245Z,7.27
2024-02-15T16:39:16.090Z,7.40
2024-02-15T16:41:44.314Z,7.50
2024-02-15T16:44:12.543Z,7.70
2024-02-15T16:46:40.651Z,6.97
2024-02-15T16:49:10.630Z,8.07
2024-02-15T16:51:38.975Z,7.30
2024-02-15T16:54:09.519Z,7.80
2024-02-15T16:56:37.893Z,6.27
2024-02-15T16:59:06.585Z,6.10
2024-02-15T17:01:34.778Z,6.80
2024-02-15T17:04:06.969Z,7.33
2024-02-15T17:06:36.598Z,7.10
2024-02-15T17:09:05.151Z,8.73
2024-02-15T17:11:33.299Z,9.20
2024-02-15T17:14:02.223Z,7.73
2024-02-15T17:16:30.939Z,7.07
2024-02-15T17:19:00.983Z,8.23
2024-02-15T17:21:30.245Z,7.70
2024-02-15T17:24:00.436Z,7.33
2024-02-15T17:26:33.028Z,7.47
2024-02-15T17:29:04.856Z,7.53
2024-02-15T17:31:33.508Z,7.37
2024-02-15T17:34:02.891Z,7.70
2024-02-15T17:36:31.212Z,7.93
2024-02-15T17:39:02.425Z,9.30
2024-02-15T17:41:32.697Z,10.33
2024-02-15T17:44:03.131Z,9.73
2024-02-15T17:46:32.074Z,9.23
2024-02-15T17:49:01.144Z,8.63
2024-02-15T17:51:30.553Z,7.83
2024-02-15T17:54:01.404Z,7.53
2024-02-15T17:56:29.946Z,11.13
2024-02-15T17:58:58.110Z,7.47
2024-02-15T18:01:27.704Z,7.77
2024-02-15T18:03:56.317Z,7.40
2024-02-15T18:06:25.855Z,8.10
2024-02-15T18:08:54.087Z,8.80
2024-02-15T18:11:23.726Z,8.17
2024-02-15T18:13:51.821Z,8.60
2024-02-15T18:16:20.905Z,9.43
2024-02-15T18:18:49.976Z,8.73
2024-02-15T18:21:18.481Z,8.30
2024-02-15T18:23:46.836Z,7.90
2024-02-15T18:26:15.437Z,8.50
2024-02-15T18:28:45.228Z,8.07
2024-02-15T18:31:15.042Z,8.37
2024-02-15T18:33:44.209Z,8.27
2024-02-15T18:36:12.426Z,8.63
2024-02-15T18:38:43.670Z,8.97
2024-02-15T18:41:12.559Z,10.33
2024-02-15T18:43:40.890Z,9.13
2024-02-15T18:46:10.683Z,8.73
2024-02-15T18:48:41.398Z,9.30
2024-02-15T18:51:10.384Z,9.53
2024-02-15T18:53:38.829Z,9.80
2024-02-15T18:56:17.628Z,9.40
2024-02-15T18:58:45.934Z,14.70
2024-02-15T19:01:15.560Z,13.67
2024-02-15T19:03:43.973Z,14.13
2024-02-15T19:06:12.289Z,13.93
2024-02-15T19:08:41.432Z,12.47
2024-02-15T19:11:10.850Z,11.60
2024-02-15T19:13:41.486Z,11.67
2024-02-15T19:16:09.612Z,11.87
2024-02-15T19:18:39.761Z,11.30
2024-02-15T19:21:09.364Z,9.57
2024-02-15T19:23:37.590Z,15.67
2024-02-15T19:26:06.126Z,11.00
2024-02-15T19:28:34.599Z,10.87
2024-02-15T19:31:05.158Z,10.80
2024-02-15T19:33:44.334Z,12.03
2024-02-15T19:36:26.091Z,12.97
2024-02-15T19:38:55.757Z,13.60
2024-02-15T19:41:23.981Z,15.53
2024-02-15T19:43:53.532Z,16.97
2024-02-15T19:46:24.646Z,16.50
2024-02-15T19:48:53.556Z,20.03
2024-02-15T19:51:25.092Z,23.97
2024-02-15T19:53:54.490Z,22.50
2024-02-15T19:56:22.781Z,25.00
2024-02-15T19:58:51.006Z,27.87
2024-02-15T20:01:19.687Z,31.70
2024-02-15T20:03:48.361Z,31.33
2024-02-15T20:06:16.997Z,30.83
2024-02-15T20:08:46.783Z,28.87
2024-02-15T20:11:15.049Z,29.77
2024-02-15T20:13:43.284Z,29.93
2024-02-15T20:16:14.145Z,33.00
2024-02-15T20:18:42.696Z,31.63
2024-02-15T20:21:13.221Z,30.97
2024-02-15T20:23:41.896Z,30.73
2024-02-15T20:26:11.865Z,33.27
2024-02-15T20:28:40.111Z,32.40
2024-02-15T20:31:10.542Z,31.83
2024-02-15T20:33:41.823Z,35.73
2024-02-15T20:36:10.462Z,33.77
2024-02-15T20:38:41.846Z,38.87
2024-02-15T20:41:13.329Z,36.23
2024-02-15T20:43:41.877Z,36.53
2024-02-15T20:46:12.730Z,36.70
2024-02-15T20:48:41.019Z,37.60
2024-02-15T20:51:09.670Z,32.40
2024-02-15T20:53:38.430Z,32.43
2024-02-15T20:56:07.760Z,35.07
2024-02-15T20:58:38.595Z,35.03
2024-02-15T21:01:09.351Z,35.03
2024-02-15T21:03:37.680Z,36.67
2024-02-15T21:06:07.825Z,35.17
2024-02-15T21:08:36.066Z,35.27
2024-02-15T21:11:04.441Z,35.50
2024-02-15T21:13:32.594Z,34.63
2024-02-15T21:16:03.409Z,34.87
2024-02-15T21:18:32.377Z,33.47
2024-02-15T21:21:00.975Z,32.83
2024-02-15T21:23:29.936Z,33.63
2024-02-15T21:25:58.154Z,33.10
2024-02-15T21:28:26.354Z,35.53
2024-02-15T21:30:54.576Z,35.03
2024-02-15T21:33:25.599Z,34.70
2024-02-15T21:35:53.901Z,33.20
2024-02-15T21:38:22.378Z,32.47
2024-02-15T21:40:50.673Z,33.27
2024-02-15T21:43:19.035Z,35.77
2024-02-15T21:45:49.547Z,35.13
2024-02-15T21:48:18.660Z,35.87
2024-02-15T21:50:48.190Z,36.33
2024-02-15T21:53:17.120Z,35.23
2024-02-15T21:55:46.536Z,34.63
2024-02-15T21:58:14.954Z,34.40
2024-02-15T22:00:43.178Z,34.67
2024-02-15T22:03:14.777Z,35.30
2024-02-15T22:05:43.309Z,36.77
2024-02-15T22:08:14.906Z,35.43
2024-02-15T22:10:44.339Z,37.13
2024-02-15T22:13:15.262Z,34.10
2024-02-15T22:15:43.701Z,32.20
2024-02-15T22:18:13.886Z,28.03
2024-02-15T22:20:42.397Z,27.80
2024-02-15T22:23:12.072Z,29.87
2024-02-15T22:25:40.252Z,28.67
2024-02-15T22:28:08.553Z,26.63
2024-02-15T22:30:36.775Z,25.83
2024-02-15T22:33:06.030Z,26.37
2024-02-15T22:35:35.508Z,25.77
2024-02-15T22:38:03.595Z,24.73
2024-02-15T22:40:33.111Z,25.67
2024-02-15T22:43:01.253Z,24.90
2024-02-15T22:45:29.871Z,25.67
2024-02-15T22:47:58.774Z,24.57
2024-02-15T22:50:27.266Z,24.67
2024-02-15T22:52:56.286Z,25.77
2024-02-15T22:55:24.395Z,24.63
2024-02-15T22:57:53.929Z,25.60
2024-02-15T23:00:22.155Z,25.70
2024-02-15T23:02:50.350Z,27.07
2024-02-15T23:05:20.509Z,26.50
2024-02-15T23:07:51.604Z,26.83
2024-02-15T23:10:20.053Z,25.33
2024-02-15T23:12:48.217Z,26.60
2024-02-15T23:15:18.025Z,24.70
2024-02-15T23:17:47.029Z,25.07
2024-02-15T23:20:15.946Z,24.17
2024-02-15T23:22:44.277Z,23.53
2024-02-15T23:25:13.266Z,26.13
2024-02-15T23:27:41.549Z,25.37
2024-02-15T23:30:11.905Z,26.67
2024-02-15T23:32:41.804Z,26.73
2024-02-15T23:35:14.848Z,26.50
2024-02-15T23:38:00.429Z,24.93
2024-02-15T23:40:28.541Z,26.70
2024-02-15T23:42:56.988Z,26.30
2024-02-15T23:45:26.629Z,24.33
2024-02-15T23:47:58.941Z,23.40
2024-02-15T23:50:29.008Z,22.93
2024-02-15T23:52:57.173Z,25.53
2024-02-15T23:55:25.373Z,23.50
2024-02-15T23:57:53.606Z,23.07
